sensor_id;sensor_type;location;lat;lon;timestamp;P1;durP1;ratioP1;P2;durP2;ratioP2
4222;SDS011;2125;51.436;14.138;2023-02-18T00:01:36;1.73;;;1.23;;
4222;SDS011;2125;51.436;14.138;2023-02-18T00:04:03;2.30;;;0.80;;
4222;SDS011;2125;51.436;14.138;2023-02-18T00:06:30;3.20;;;1.37;;
4222;SDS011;2125;51.436;14.138;2023-02-18T00:08:59;1.47;;;0.70;;
4222;SDS011;2125;51.436;14.138;2023-02-18T00:11:28;1.07;;;0.63;;
4222;SDS011;2125;51.436;14.138;2023-02-18T00:13:56;2.20;;;0.60;;
4222;SDS011;2125;51.436;14.138;2023-02-18T00:16:25;1.87;;;0.87;;
4222;SDS011;2125;51.436;14.138;2023-02-18T00:18:53;1.73;;;0.80;;
4222;SDS011;2125;51.436;14.138;2023-02-18T00:21:20;2.73;;;0.83;;
4222;SDS011;2125;51.436;14.138;2023-02-18T00:23:47;1.50;;;0.60;;
4222;SDS011;2125;51.436;14.138;2023-02-18T00:26:14;2.07;;;0.90;;
4222;SDS011;2125;51.436;14.138;2023-02-18T00:28:46;1.47;;;0.87;;
4222;SDS011;2125;51.436;14.138;2023-02-18T00:31:14;3.30;;;0.87;;
4222;SDS011;2125;51.436;14.138;2023-02-18T00:33:43;5.80;;;0.93;;
4222;SDS011;2125;51.436;14.138;2023-02-18T00:36:11;4.93;;;0.73;;
4222;SDS011;2125;51.436;14.138;2023-02-18T00:38:42;0.50;;;0.40;;
4222;SDS011;2125;51.436;14.138;2023-02-18T00:41:09;1.67;;;0.70;;
4222;SDS011;2125;51.436;14.138;2023-02-18T00:43:36;1.27;;;0.90;;
4222;SDS011;2125;51.436;14.138;2023-02-18T00:46:04;0.70;;;0.70;;
4222;SDS011;2125;51.436;14.138;2023-02-18T00:48:31;3.67;;;0.97;;
4222;SDS011;2125;51.436;14.138;2023-02-18T00:50:58;0.83;;;0.50;;
4222;SDS011;2125;51.436;14.138;2023-02-18T00:53:25;1.17;;;0.63;;
4222;SDS011;2125;51.436;14.138;2023-02-18T00:55:53;1.03;;;0.80;;
4222;SDS011;2125;51.436;14.138;2023-02-18T00:58:20;0.87;;;0.50;;
4222;SDS011;2125;51.436;14.138;2023-02-18T01:00:47;6.53;;;0.93;;
4222;SDS011;2125;51.436;14.138;2023-02-18T01:03:16;1.43;;;0.67;;
4222;SDS011;2125;51.436;14.138;2023-02-18T01:05:43;0.70;;;0.60;;
4222;SDS011;2125;51.436;14.138;2023-02-18T01:08:10;2.93;;;0.80;;
4222;SDS011;2125;51.436;14.138;2023-02-18T01:10:39;0.70;;;0.53;;
4222;SDS011;2125;51.436;14.138;2023-02-18T01:13:07;2.60;;;0.90;;
4222;SDS011;2125;51.436;14.138;2023-02-18T01:15:35;1.53;;;0.80;;
4222;SDS011;2125;51.436;14.138;2023-02-18T01:18:02;1.67;;;0.70;;
4222;SDS011;2125;51.436;14.138;2023-02-18T01:20:31;3.17;;;0.77;;
4222;SDS011;2125;51.436;14.138;2023-02-18T01:22:57;0.80;;;0.53;;
4222;SDS011;2125;51.436;14.138;2023-02-18T01:25:24;1.10;;;0.50;;
4222;SDS011;2125;51.436;14.138;2023-02-18T01:27:50;4.73;;;1.17;;
4222;SDS011;2125;51.436;14.138;2023-02-18T01:30:17;3.03;;;0.83;;
4222;SDS011;2125;51.436;14.138;2023-02-18T01:32:44;1.23;;;0.70;;
4222;SDS011;2125;51.436;14.138;2023-02-18T01:35:12;0.77;;;0.47;;
4222;SDS011;2125;51.436;14.138;2023-02-18T01:37:41;5.03;;;0.80;;
4222;SDS011;2125;51.436;14.138;2023-02-18T01:40:11;3.70;;;0.60;;
4222;SDS011;2125;51.436;14.138;2023-02-18T01:42:39;0.80;;;0.60;;
4222;SDS011;2125;51.436;14.138;2023-02-18T01:48:11;0.87;;;0.60;;
4222;SDS011;2125;51.436;14.138;2023-02-18T01:50:42;0.80;;;0.50;;
4222;SDS011;2125;51.436;14.138;2023-02-18T01:53:13;1.70;;;0.50;;
4222;SDS011;2125;51.436;14.138;2023-02-18T01:55:43;2.40;;;0.83;;
4222;SDS011;2125;51.436;14.138;2023-02-18T01:58:11;1.93;;;1.00;;
4222;SDS011;2125;51.436;14.138;2023-02-18T02:00:39;15.23;;;0.80;;
4222;SDS011;2125;51.436;14.138;2023-02-18T02:03:06;2.50;;;0.90;;
4222;SDS011;2125;51.436;14.138;2023-02-18T02:05:33;4.27;;;1.27;;
4222;SDS011;2125;51.436;14.138;2023-02-18T02:08:01;0.90;;;0.63;;
4222;SDS011;2125;51.436;14.138;2023-02-18T02:10:39;2.27;;;0.60;;
4222;SDS011;2125;51.436;14.138;2023-02-18T02:13:16;0.63;;;0.53;;
4222;SDS011;2125;51.436;14.138;2023-02-18T02:15:51;3.03;;;0.40;;
4222;SDS011;2125;51.436;14.138;2023-02-18T02:18:27;3.10;;;1.10;;
4222;SDS011;2125;51.436;14.138;2023-02-18T02:21:09;1.57;;;0.80;;
4222;SDS011;2125;51.436;14.138;2023-02-18T02:24:11;0.60;;;0.50;;
4222;SDS011;2125;51.436;14.138;2023-02-18T02:27:01;0.80;;;0.60;;
4222;SDS011;2125;51.436;14.138;2023-02-18T02:29:46;3.30;;;0.73;;
4222;SDS011;2125;51.436;14.138;2023-02-18T02:32:45;10.70;;;0.90;;
4222;SDS011;2125;51.436;14.138;2023-02-18T02:35:31;2.17;;;0.77;;
4222;SDS011;2125;51.436;14.138;2023-02-18T02:38:01;3.80;;;1.20;;
4222;SDS011;2125;51.436;14.138;2023-02-18T02:40:32;7.73;;;0.70;;
4222;SDS011;2125;51.436;14.138;2023-02-18T02:46:16;1.80;;;0.60;;
4222;SDS011;2125;51.436;14.138;2023-02-18T02:48:46;1.47;;;0.60;;
4222;SDS011;2125;51.436;14.138;2023-02-18T02:51:18;1.23;;;0.80;;
4222;SDS011;2125;51.436;14.138;2023-02-18T02:53:53;5.23;;;0.80;;
4222;SDS011;2125;51.436;14.138;2023-02-18T02:56:22;1.10;;;0.60;;
4222;SDS011;2125;51.436;14.138;2023-02-18T02:58:52;1.23;;;0.50;;
4222;SDS011;2125;51.436;14.138;2023-02-18T03:01:27;0.60;;;0.40;;
4222;SDS011;2125;51.436;14.138;2023-02-18T03:04:05;11.33;;;0.80;;
4222;SDS011;2125;51.436;14.138;2023-02-18T03:06:50;1.20;;;0.90;;
4222;SDS011;2125;51.436;14.138;2023-02-18T03:09:39;1.53;;;0.83;;
4222;SDS011;2125;51.436;14.138;2023-02-18T03:12:15;3.60;;;0.77;;
4222;SDS011;2125;51.436;14.138;2023-02-18T03:14:49;0.50;;;0.40;;
4222;SDS011;2125;51.436;14.138;2023-02-18T03:17:25;2.57;;;0.73;;
4222;SDS011;2125;51.436;14.138;2023-02-18T03:19:56;6.67;;;1.20;;
4222;SDS011;2125;51.436;14.138;2023-02-18T03:22:35;2.27;;;1.00;;
4222;SDS011;2125;51.436;14.138;2023-02-18T03:25:05;1.97;;;0.50;;
4222;SDS011;2125;51.436;14.138;2023-02-18T03:27:33;1.33;;;0.60;;
4222;SDS011;2125;51.436;14.138;2023-02-18T03:30:06;4.00;;;0.90;;
4222;SDS011;2125;51.436;14.138;2023-02-18T03:32:39;4.10;;;1.07;;
4222;SDS011;2125;51.436;14.138;2023-02-18T03:35:09;2.83;;;0.70;;
4222;SDS011;2125;51.436;14.138;2023-02-18T03:37:41;1.43;;;0.63;;
4222;SDS011;2125;51.436;14.138;2023-02-18T03:40:11;0.80;;;0.40;;
4222;SDS011;2125;51.436;14.138;2023-02-18T03:42:38;1.33;;;0.60;;
4222;SDS011;2125;51.436;14.138;2023-02-18T03:45:05;2.10;;;0.60;;
4222;SDS011;2125;51.436;14.138;2023-02-18T03:47:32;1.60;;;0.67;;
4222;SDS011;2125;51.436;14.138;2023-02-18T03:50:00;1.13;;;0.57;;
4222;SDS011;2125;51.436;14.138;2023-02-18T03:52:26;3.97;;;0.67;;
4222;SDS011;2125;51.436;14.138;2023-02-18T03:55:02;2.30;;;0.60;;
4222;SDS011;2125;51.436;14.138;2023-02-18T03:57:29;0.60;;;0.50;;
4222;SDS011;2125;51.436;14.138;2023-02-18T03:59:56;1.80;;;0.63;;
4222;SDS011;2125;51.436;14.138;2023-02-18T04:02:23;0.97;;;0.50;;
4222;SDS011;2125;51.436;14.138;2023-02-18T04:04:49;0.50;;;0.30;;
4222;SDS011;2125;51.436;14.138;2023-02-18T04:07:16;5.23;;;0.40;;
4222;SDS011;2125;51.436;14.138;2023-02-18T04:09:42;0.70;;;0.60;;
4222;SDS011;2125;51.436;14.138;2023-02-18T04:12:10;0.50;;;0.30;;
4222;SDS011;2125;51.436;14.138;2023-02-18T04:14:37;0.50;;;0.30;;
4222;SDS011;2125;51.436;14.138;2023-02-18T04:17:04;0.50;;;0.30;;
4222;SDS011;2125;51.436;14.138;2023-02-18T04:19:31;2.77;;;0.50;;
4222;SDS011;2125;51.436;14.138;2023-02-18T04:21:58;0.50;;;0.40;;
4222;SDS011;2125;51.436;14.138;2023-02-18T04:24:24;1.17;;;0.43;;
4222;SDS011;2125;51.436;14.138;2023-02-18T04:26:51;2.63;;;0.70;;
4222;SDS011;2125;51.436;14.138;2023-02-18T04:29:19;3.03;;;1.17;;
4222;SDS011;2125;51.436;14.138;2023-02-18T04:31:45;1.30;;;0.70;;
4222;SDS011;2125;51.436;14.138;2023-02-18T04:34:12;1.10;;;0.47;;
4222;SDS011;2125;51.436;14.138;2023-02-18T04:36:39;1.37;;;0.67;;
4222;SDS011;2125;51.436;14.138;2023-02-18T04:39:05;0.50;;;0.30;;
4222;SDS011;2125;51.436;14.138;2023-02-18T04:41:32;1.43;;;0.60;;
4222;SDS011;2125;51.436;14.138;2023-02-18T04:43:58;0.50;;;0.40;;
4222;SDS011;2125;51.436;14.138;2023-02-18T04:46:26;0.90;;;0.50;;
4222;SDS011;2125;51.436;14.138;2023-02-18T04:48:53;0.50;;;0.33;;
4222;SDS011;2125;51.436;14.138;2023-02-18T04:51:19;1.00;;;0.77;;
4222;SDS011;2125;51.436;14.138;2023-02-18T04:53:46;1.47;;;0.50;;
4222;SDS011;2125;51.436;14.138;2023-02-18T04:56:13;1.83;;;0.60;;
4222;SDS011;2125;51.436;14.138;2023-02-18T04:58:39;1.43;;;0.60;;
4222;SDS011;2125;51.436;14.138;2023-02-18T05:01:06;2.07;;;0.60;;
4222;SDS011;2125;51.436;14.138;2023-02-18T05:03:34;3.40;;;0.80;;
4222;SDS011;2125;51.436;14.138;2023-02-18T05:06:00;0.83;;;0.60;;
4222;SDS011;2125;51.436;14.138;2023-02-18T05:08:28;5.50;;;0.87;;
4222;SDS011;2125;51.436;14.138;2023-02-18T05:10:54;1.33;;;0.63;;
4222;SDS011;2125;51.436;14.138;2023-02-18T05:13:21;2.50;;;0.70;;
4222;SDS011;2125;51.436;14.138;2023-02-18T05:15:49;1.13;;;0.60;;
4222;SDS011;2125;51.436;14.138;2023-02-18T05:18:16;0.67;;;0.30;;
4222;SDS011;2125;51.436;14.138;2023-02-18T05:20:45;5.80;;;0.80;;
4222;SDS011;2125;51.436;14.138;2023-02-18T05:23:12;0.50;;;0.30;;
4222;SDS011;2125;51.436;14.138;2023-02-18T05:25:38;1.70;;;0.70;;
4222;SDS011;2125;51.436;14.138;2023-02-18T05:28:05;1.63;;;0.83;;
4222;SDS011;2125;51.436;14.138;2023-02-18T05:30:32;2.87;;;1.30;;
4222;SDS011;2125;51.436;14.138;2023-02-18T05:32:59;0.50;;;0.43;;
4222;SDS011;2125;51.436;14.138;2023-02-18T05:35:27;2.87;;;1.20;;
4222;SDS011;2125;51.436;14.138;2023-02-18T05:37:55;14.20;;;1.03;;
4222;SDS011;2125;51.436;14.138;2023-02-18T05:40:21;1.77;;;0.83;;
4222;SDS011;2125;51.436;14.138;2023-02-18T05:42:48;3.33;;;1.07;;
4222;SDS011;2125;51.436;14.138;2023-02-18T05:45:14;1.03;;;0.50;;
4222;SDS011;2125;51.436;14.138;2023-02-18T05:47:40;0.70;;;0.50;;
4222;SDS011;2125;51.436;14.138;2023-02-18T05:50:07;0.60;;;0.50;;
4222;SDS011;2125;51.436;14.138;2023-02-18T05:52:35;5.63;;;1.13;;
4222;SDS011;2125;51.436;14.138;2023-02-18T05:55:03;2.00;;;0.97;;
4222;SDS011;2125;51.436;14.138;2023-02-18T05:57:31;0.60;;;0.40;;
4222;SDS011;2125;51.436;14.138;2023-02-18T05:59:57;32.97;;;0.80;;
4222;SDS011;2125;51.436;14.138;2023-02-18T06:02:24;0.73;;;0.50;;
4222;SDS011;2125;51.436;14.138;2023-02-18T06:04:50;2.10;;;0.50;;
4222;SDS011;2125;51.436;14.138;2023-02-18T06:07:17;0.60;;;0.50;;
4222;SDS011;2125;51.436;14.138;2023-02-18T06:09:44;0.60;;;0.40;;
4222;SDS011;2125;51.436;14.138;2023-02-18T06:12:13;0.90;;;0.70;;
4222;SDS011;2125;51.436;14.138;2023-02-18T06:14:39;0.80;;;0.50;;
4222;SDS011;2125;51.436;14.138;2023-02-18T06:17:06;0.77;;;0.40;;
4222;SDS011;2125;51.436;14.138;2023-02-18T06:19:33;1.33;;;0.77;;
4222;SDS011;2125;51.436;14.138;2023-02-18T06:22:00;2.30;;;0.67;;
4222;SDS011;2125;51.436;14.138;2023-02-18T06:24:26;0.50;;;0.30;;
4222;SDS011;2125;51.436;14.138;2023-02-18T06:26:53;2.23;;;0.80;;
4222;SDS011;2125;51.436;14.138;2023-02-18T06:29:21;0.73;;;0.40;;
4222;SDS011;2125;51.436;14.138;2023-02-18T06:31:48;0.87;;;0.60;;
4222;SDS011;2125;51.436;14.138;2023-02-18T06:34:14;2.80;;;0.73;;
4222;SDS011;2125;51.436;14.138;2023-02-18T06:36:41;0.67;;;0.67;;
4222;SDS011;2125;51.436;14.138;2023-02-18T06:39:08;0.50;;;0.40;;
4222;SDS011;2125;51.436;14.138;2023-02-18T06:41:34;0.63;;;0.60;;
4222;SDS011;2125;51.436;14.138;2023-02-18T06:44:01;0.60;;;0.40;;
4222;SDS011;2125;51.436;14.138;2023-02-18T06:46:29;0.60;;;0.60;;
4222;SDS011;2125;51.436;14.138;2023-02-18T06:48:55;6.17;;;0.53;;
4222;SDS011;2125;51.436;14.138;2023-02-18T06:51:22;9.70;;;1.37;;
4222;SDS011;2125;51.436;14.138;2023-02-18T06:53:49;1.57;;;0.63;;
4222;SDS011;2125;51.436;14.138;2023-02-18T06:56:15;1.00;;;0.50;;
4222;SDS011;2125;51.436;14.138;2023-02-18T06:58:42;0.70;;;0.60;;
4222;SDS011;2125;51.436;14.138;2023-02-18T07:01:09;2.10;;;1.03;;
4222;SDS011;2125;51.436;14.138;2023-02-18T07:03:37;4.43;;;0.90;;
4222;SDS011;2125;51.436;14.138;2023-02-18T07:06:05;3.37;;;1.27;;
4222;SDS011;2125;51.436;14.138;2023-02-18T07:08:32;4.97;;;1.13;;
4222;SDS011;2125;51.436;14.138;2023-02-18T07:11:00;1.10;;;0.83;;
4222;SDS011;2125;51.436;14.138;2023-02-18T07:13:27;0.50;;;0.40;;
4222;SDS011;2125;51.436;14.138;2023-02-18T07:15:53;1.33;;;0.70;;
4222;SDS011;2125;51.436;14.138;2023-02-18T07:18:20;15.53;;;1.57;;
4222;SDS011;2125;51.436;14.138;2023-02-18T07:20:48;5.13;;;1.17;;
4222;SDS011;2125;51.436;14.138;2023-02-18T07:23:15;1.33;;;0.70;;
4222;SDS011;2125;51.436;14.138;2023-02-18T07:25:41;3.50;;;1.10;;
4222;SDS011;2125;51.436;14.138;2023-02-18T07:28:08;0.70;;;0.53;;
4222;SDS011;2125;51.436;14.138;2023-02-18T07:30:35;5.03;;;1.43;;
4222;SDS011;2125;51.436;14.138;2023-02-18T07:33:01;2.30;;;1.00;;
4222;SDS011;2125;51.436;14.138;2023-02-18T07:35:28;2.50;;;0.60;;
4222;SDS011;2125;51.436;14.138;2023-02-18T07:37:56;0.63;;;0.50;;
4222;SDS011;2125;51.436;14.138;2023-02-18T07:40:22;1.73;;;0.90;;
4222;SDS011;2125;51.436;14.138;2023-02-18T07:42:49;1.37;;;0.70;;
4222;SDS011;2125;51.436;14.138;2023-02-18T07:45:16;1.97;;;1.10;;
4222;SDS011;2125;51.436;14.138;2023-02-18T07:47:43;3.70;;;0.97;;
4222;SDS011;2125;51.436;14.138;2023-02-18T07:50:10;0.93;;;0.70;;
4222;SDS011;2125;51.436;14.138;2023-02-18T07:52:36;0.70;;;0.70;;
4222;SDS011;2125;51.436;14.138;2023-02-18T07:55:07;1.77;;;1.50;;
4222;SDS011;2125;51.436;14.138;2023-02-18T07:57:34;1.83;;;0.87;;
4222;SDS011;2125;51.436;14.138;2023-02-18T08:00:21;3.30;;;1.60;;
4222;SDS011;2125;51.436;14.138;2023-02-18T08:02:48;2.90;;;1.00;;
4222;SDS011;2125;51.436;14.138;2023-02-18T08:05:14;1.17;;;1.00;;
4222;SDS011;2125;51.436;14.138;2023-02-18T08:07:41;3.50;;;1.40;;
4222;SDS011;2125;51.436;14.138;2023-02-18T08:10:09;2.33;;;1.40;;
4222;SDS011;2125;51.436;14.138;2023-02-18T08:12:36;2.50;;;0.70;;
4222;SDS011;2125;51.436;14.138;2023-02-18T08:15:03;4.60;;;1.40;;
4222;SDS011;2125;51.436;14.138;2023-02-18T08:17:30;5.37;;;1.20;;
4222;SDS011;2125;51.436;14.138;2023-02-18T08:19:56;1.23;;;0.77;;
4222;SDS011;2125;51.436;14.138;2023-02-18T08:22:23;3.57;;;1.70;;
4222;SDS011;2125;51.436;14.138;2023-02-18T08:24:52;1.87;;;1.40;;
4222;SDS011;2125;51.436;14.138;2023-02-18T08:27:21;3.40;;;1.60;;
4222;SDS011;2125;51.436;14.138;2023-02-18T08:29:48;2.63;;;1.37;;
4222;SDS011;2125;51.436;14.138;2023-02-18T08:32:15;5.33;;;1.60;;
4222;SDS011;2125;51.436;14.138;2023-02-18T08:34:42;2.20;;;1.20;;
4222;SDS011;2125;51.436;14.138;2023-02-18T08:37:09;8.77;;;2.00;;
4222;SDS011;2125;51.436;14.138;2023-02-18T08:39:37;3.97;;;1.80;;
4222;SDS011;2125;51.436;14.138;2023-02-18T08:42:04;2.53;;;1.67;;
4222;SDS011;2125;51.436;14.138;2023-02-18T08:44:32;5.27;;;2.27;;
4222;SDS011;2125;51.436;14.138;2023-02-18T08:47:00;14.80;;;2.47;;
4222;SDS011;2125;51.436;14.138;2023-02-18T08:49:27;9.73;;;2.40;;
4222;SDS011;2125;51.436;14.138;2023-02-18T08:51:55;8.23;;;2.40;;
4222;SDS011;2125;51.436;14.138;2023-02-18T08:54:22;4.00;;;1.83;;
4222;SDS011;2125;51.436;14.138;2023-02-18T08:56:48;4.67;;;1.77;;
4222;SDS011;2125;51.436;14.138;2023-02-18T09:01:55;7.40;;;2.10;;
